sensor_id;sensor_type;location;lat;lon;timestamp;P1;durP1;ratioP1;P2;durP2;ratioP2
23058;SDS011;30585;51.502;7.218;2024-02-14T00:00:23;1.10;;;0.80;;
23058;SDS011;30585;51.502;7.218;2024-02-14T00:02:51;4.83;;;1.07;;
23058;SDS011;30585;51.502;7.218;2024-02-14T00:05:20;1.23;;;1.03;;
23058;SDS011;30585;51.502;7.218;2024-02-14T00:07:49;1.70;;;1.07;;
23058;SDS011;30585;51.502;7.218;2024-02-14T00:10:17;2.27;;;0.93;;
23058;SDS011;30585;51.502;7.218;2024-02-14T00:12:45;2.83;;;1.07;;
23058;SDS011;30585;51.502;7.218;2024-02-14T00:15:14;2.50;;;1.60;;
23058;SDS011;30585;51.502;7.218;2024-02-14T00:17:43;0.80;;;0.80;;
23058;SDS011;30585;51.502;7.218;2024-02-14T00:20:11;3.40;;;0.87;;
23058;SDS011;30585;51.502;7.218;2024-02-14T00:22:39;0.97;;;0.70;;
23058;SDS011;30585;51.502;7.218;2024-02-14T00:25:07;4.00;;;0.90;;
23058;SDS011;30585;51.502;7.218;2024-02-14T00:27:35;1.17;;;0.60;;
23058;SDS011;30585;51.502;7.218;2024-02-14T00:30:03;1.70;;;0.60;;
23058;SDS011;30585;51.502;7.218;2024-02-14T00:32:32;0.63;;;0.63;;
23058;SDS011;30585;51.502;7.218;2024-02-14T00:35:02;1.27;;;0.67;;
23058;SDS011;30585;51.502;7.218;2024-02-14T00:37:31;1.10;;;0.63;;
23058;SDS011;30585;51.502;7.218;2024-02-14T00:39:59;5.47;;;1.07;;
23058;SDS011;30585;51.502;7.218;2024-02-14T00:42:28;2.50;;;0.90;;
23058;SDS011;30585;51.502;7.218;2024-02-14T00:44:55;1.30;;;0.50;;
23058;SDS011;30585;51.502;7.218;2024-02-14T00:47:23;1.17;;;0.50;;
23058;SDS011;30585;51.502;7.218;2024-02-14T00:49:51;1.27;;;0.90;;
23058;SDS011;30585;51.502;7.218;2024-02-14T00:52:20;6.33;;;0.73;;
23058;SDS011;30585;51.502;7.218;2024-02-14T00:54:48;2.90;;;0.60;;
23058;SDS011;30585;51.502;7.218;2024-02-14T00:57:16;1.10;;;0.90;;
23058;SDS011;30585;51.502;7.218;2024-02-14T00:59:44;0.90;;;0.70;;
23058;SDS011;30585;51.502;7.218;2024-02-14T01:02:12;2.20;;;0.90;;
23058;SDS011;30585;51.502;7.218;2024-02-14T01:04:40;0.83;;;0.60;;
23058;SDS011;30585;51.502;7.218;2024-02-14T01:07:08;0.70;;;0.60;;
23058;SDS011;30585;51.502;7.218;2024-02-14T01:09:37;2.03;;;1.20;;
23058;SDS011;30585;51.502;7.218;2024-02-14T01:12:05;1.07;;;0.80;;
23058;SDS011;30585;51.502;7.218;2024-02-14T01:14:33;2.33;;;1.20;;
23058;SDS011;30585;51.502;7.218;2024-02-14T01:17:01;0.93;;;0.67;;
23058;SDS011;30585;51.502;7.218;2024-02-14T01:19:30;3.97;;;1.03;;
23058;SDS011;30585;51.502;7.218;2024-02-14T01:21:57;0.93;;;0.80;;
23058;SDS011;30585;51.502;7.218;2024-02-14T01:24:25;4.33;;;0.50;;
23058;SDS011;30585;51.502;7.218;2024-02-14T01:26:55;3.67;;;0.67;;
23058;SDS011;30585;51.502;7.218;2024-02-14T01:29:23;0.53;;;0.47;;
23058;SDS011;30585;51.502;7.218;2024-02-14T01:31:50;1.43;;;0.70;;
23058;SDS011;30585;51.502;7.218;2024-02-14T01:34:18;1.07;;;0.60;;
23058;SDS011;30585;51.502;7.218;2024-02-14T01:36:47;3.60;;;0.70;;
23058;SDS011;30585;51.502;7.218;2024-02-14T01:39:15;3.00;;;1.00;;
23058;SDS011;30585;51.502;7.218;2024-02-14T01:41:44;2.50;;;0.80;;
23058;SDS011;30585;51.502;7.218;2024-02-14T01:44:16;0.80;;;0.50;;
23058;SDS011;30585;51.502;7.218;2024-02-14T01:46:44;0.93;;;0.63;;
23058;SDS011;30585;51.502;7.218;2024-02-14T01:49:12;2.00;;;0.87;;
23058;SDS011;30585;51.502;7.218;2024-02-14T01:51:42;3.60;;;1.20;;
23058;SDS011;30585;51.502;7.218;2024-02-14T01:54:12;1.63;;;0.63;;
23058;SDS011;30585;51.502;7.218;2024-02-14T01:56:40;0.50;;;0.43;;
23058;SDS011;30585;51.502;7.218;2024-02-14T01:59:10;0.73;;;0.73;;
23058;SDS011;30585;51.502;7.218;2024-02-14T02:01:39;0.93;;;0.70;;
23058;SDS011;30585;51.502;7.218;2024-02-14T02:04:07;1.23;;;0.70;;
23058;SDS011;30585;51.502;7.218;2024-02-14T02:06:35;0.90;;;0.80;;
23058;SDS011;30585;51.502;7.218;2024-02-14T02:09:03;1.20;;;0.67;;
23058;SDS011;30585;51.502;7.218;2024-02-14T02:11:42;1.17;;;0.77;;
23058;SDS011;30585;51.502;7.218;2024-02-14T02:14:10;2.73;;;0.70;;
23058;SDS011;30585;51.502;7.218;2024-02-14T02:16:40;2.07;;;0.80;;
23058;SDS011;30585;51.502;7.218;2024-02-14T02:19:07;1.40;;;0.80;;
23058;SDS011;30585;51.502;7.218;2024-02-14T02:21:36;2.97;;;0.80;;
23058;SDS011;30585;51.502;7.218;2024-02-14T02:24:05;2.07;;;0.87;;
23058;SDS011;30585;51.502;7.218;2024-02-14T02:26:33;0.90;;;0.60;;
23058;SDS011;30585;51.502;7.218;2024-02-14T02:29:01;0.60;;;0.60;;
23058;SDS011;30585;51.502;7.218;2024-02-14T02:31:28;0.63;;;0.60;;
23058;SDS011;30585;51.502;7.218;2024-02-14T02:33:56;0.70;;;0.53;;
23058;SDS011;30585;51.502;7.218;2024-02-14T02:36:25;1.13;;;0.67;;
23058;SDS011;30585;51.502;7.218;2024-02-14T02:38:56;2.87;;;0.90;;
23058;SDS011;30585;51.502;7.218;2024-02-14T02:41:28;0.70;;;0.60;;
23058;SDS011;30585;51.502;7.218;2024-02-14T02:43:58;0.70;;;0.70;;
23058;SDS011;30585;51.502;7.218;2024-02-14T02:46:26;1.57;;;0.63;;
23058;SDS011;30585;51.502;7.218;2024-02-14T02:48:54;1.27;;;0.97;;
23058;SDS011;30585;51.502;7.218;2024-02-14T02:51:23;7.70;;;0.80;;
23058;SDS011;30585;51.502;7.218;2024-02-14T02:53:51;0.63;;;0.47;;
23058;SDS011;30585;51.502;7.218;2024-02-14T02:56:19;1.10;;;0.50;;
23058;SDS011;30585;51.502;7.218;2024-02-14T02:58:49;7.07;;;1.17;;
23058;SDS011;30585;51.502;7.218;2024-02-14T03:01:17;1.33;;;0.70;;
23058;SDS011;30585;51.502;7.218;2024-02-14T03:03:45;0.83;;;0.57;;
23058;SDS011;30585;51.502;7.218;2024-02-14T03:06:12;1.27;;;0.77;;
23058;SDS011;30585;51.502;7.218;2024-02-14T03:08:40;4.13;;;1.00;;
23058;SDS011;30585;51.502;7.218;2024-02-14T03:11:09;0.70;;;0.30;;
23058;SDS011;30585;51.502;7.218;2024-02-14T03:13:37;2.43;;;0.60;;
23058;SDS011;30585;51.502;7.218;2024-02-14T03:16:08;0.60;;;0.47;;
23058;SDS011;30585;51.502;7.218;2024-02-14T03:18:37;2.70;;;0.60;;
23058;SDS011;30585;51.502;7.218;2024-02-14T03:21:05;3.03;;;0.93;;
23058;SDS011;30585;51.502;7.218;2024-02-14T03:23:33;0.80;;;0.60;;
23058;SDS011;30585;51.502;7.218;2024-02-14T03:26:01;0.67;;;0.63;;
23058;SDS011;30585;51.502;7.218;2024-02-14T03:28:33;0.60;;;0.50;;
23058;SDS011;30585;51.502;7.218;2024-02-14T03:31:01;11.00;;;1.10;;
23058;SDS011;30585;51.502;7.218;2024-02-14T03:33:30;0.60;;;0.60;;
23058;SDS011;30585;51.502;7.218;2024-02-14T03:35:58;0.33;;;0.33;;
23058;SDS011;30585;51.502;7.218;2024-02-14T03:38:26;0.37;;;0.37;;
23058;SDS011;30585;51.502;7.218;2024-02-14T03:40:54;2.30;;;1.20;;
23058;SDS011;30585;51.502;7.218;2024-02-14T03:43:22;1.00;;;0.70;;
23058;SDS011;30585;51.502;7.218;2024-02-14T03:45:50;1.13;;;0.43;;
23058;SDS011;30585;51.502;7.218;2024-02-14T03:48:18;1.43;;;0.50;;
23058;SDS011;30585;51.502;7.218;2024-02-14T03:50:47;0.63;;;0.53;;
23058;SDS011;30585;51.502;7.218;2024-02-14T03:53:15;1.83;;;0.70;;
23058;SDS011;30585;51.502;7.218;2024-02-14T03:55:43;1.67;;;0.50;;
23058;SDS011;30585;51.502;7.218;2024-02-14T03:58:11;1.23;;;0.60;;
23058;SDS011;30585;51.502;7.218;2024-02-14T04:00:41;0.80;;;0.60;;
23058;SDS011;30585;51.502;7.218;2024-02-14T04:03:11;0.60;;;0.60;;
23058;SDS011;30585;51.502;7.218;2024-02-14T04:05:39;0.60;;;0.60;;
23058;SDS011;30585;51.502;7.218;2024-02-14T04:08:09;1.23;;;0.90;;
23058;SDS011;30585;51.502;7.218;2024-02-14T04:10:37;1.67;;;0.80;;
23058;SDS011;30585;51.502;7.218;2024-02-14T04:13:04;0.67;;;0.60;;
23058;SDS011;30585;51.502;7.218;2024-02-14T04:15:33;1.47;;;1.03;;
23058;SDS011;30585;51.502;7.218;2024-02-14T04:18:00;3.13;;;0.90;;
23058;SDS011;30585;51.502;7.218;2024-02-14T04:20:32;1.20;;;0.77;;
23058;SDS011;30585;51.502;7.218;2024-02-14T04:23:00;4.13;;;1.13;;
23058;SDS011;30585;51.502;7.218;2024-02-14T04:25:31;1.50;;;1.13;;
23058;SDS011;30585;51.502;7.218;2024-02-14T04:27:59;1.10;;;0.90;;
23058;SDS011;30585;51.502;7.218;2024-02-14T04:30:27;3.23;;;0.90;;
23058;SDS011;30585;51.502;7.218;2024-02-14T04:32:55;1.80;;;1.37;;
23058;SDS011;30585;51.502;7.218;2024-02-14T04:35:24;0.80;;;0.70;;
23058;SDS011;30585;51.502;7.218;2024-02-14T04:37:51;1.87;;;1.30;;
23058;SDS011;30585;51.502;7.218;2024-02-14T04:40:19;2.70;;;1.20;;
23058;SDS011;30585;51.502;7.218;2024-02-14T04:42:48;1.07;;;0.83;;
23058;SDS011;30585;51.502;7.218;2024-02-14T04:45:16;3.47;;;1.07;;
23058;SDS011;30585;51.502;7.218;2024-02-14T04:47:44;1.23;;;1.13;;
23058;SDS011;30585;51.502;7.218;2024-02-14T04:50:12;2.57;;;1.63;;
23058;SDS011;30585;51.502;7.218;2024-02-14T04:52:40;1.47;;;1.37;;
23058;SDS011;30585;51.502;7.218;2024-02-14T04:55:08;2.93;;;1.40;;
23058;SDS011;30585;51.502;7.218;2024-02-14T04:57:36;1.27;;;0.97;;
23058;SDS011;30585;51.502;7.218;2024-02-14T05:00:05;1.80;;;0.67;;
23058;SDS011;30585;51.502;7.218;2024-02-14T05:02:35;1.27;;;1.17;;
23058;SDS011;30585;51.502;7.218;2024-02-14T05:05:04;2.53;;;1.20;;
23058;SDS011;30585;51.502;7.218;2024-02-14T05:07:32;1.57;;;1.07;;
23058;SDS011;30585;51.502;7.218;2024-02-14T05:10:00;1.17;;;0.80;;
23058;SDS011;30585;51.502;7.218;2024-02-14T05:12:28;1.87;;;1.03;;
23058;SDS011;30585;51.502;7.218;2024-02-14T05:14:55;0.90;;;0.90;;
23058;SDS011;30585;51.502;7.218;2024-02-14T05:17:25;1.30;;;1.00;;
23058;SDS011;30585;51.502;7.218;2024-02-14T05:19:53;2.03;;;1.10;;
23058;SDS011;30585;51.502;7.218;2024-02-14T05:22:21;1.47;;;0.93;;
23058;SDS011;30585;51.502;7.218;2024-02-14T05:24:49;2.80;;;1.57;;
23058;SDS011;30585;51.502;7.218;2024-02-14T05:27:16;2.07;;;1.37;;
23058;SDS011;30585;51.502;7.218;2024-02-14T05:29:44;0.80;;;0.57;;
23058;SDS011;30585;51.502;7.218;2024-02-14T05:32:12;1.20;;;0.80;;
23058;SDS011;30585;51.502;7.218;2024-02-14T05:34:41;1.53;;;1.00;;
23058;SDS011;30585;51.502;7.218;2024-02-14T05:37:09;7.63;;;1.23;;
23058;SDS011;30585;51.502;7.218;2024-02-14T05:39:37;2.07;;;1.13;;
23058;SDS011;30585;51.502;7.218;2024-02-14T05:42:04;1.53;;;0.90;;
23058;SDS011;30585;51.502;7.218;2024-02-14T05:44:32;1.53;;;0.90;;
23058;SDS011;30585;51.502;7.218;2024-02-14T05:47:00;3.60;;;1.50;;
23058;SDS011;30585;51.502;7.218;2024-02-14T05:49:28;1.00;;;0.90;;
23058;SDS011;30585;51.502;7.218;2024-02-14T05:51:57;0.87;;;0.60;;
23058;SDS011;30585;51.502;7.218;2024-02-14T05:54:25;2.40;;;1.07;;
23058;SDS011;30585;51.502;7.218;2024-02-14T05:56:53;1.60;;;0.80;;
23058;SDS011;30585;51.502;7.218;2024-02-14T05:59:20;1.67;;;1.20;;
23058;SDS011;30585;51.502;7.218;2024-02-14T06:01:49;0.97;;;0.80;;
23058;SDS011;30585;51.502;7.218;2024-02-14T06:04:17;1.07;;;0.90;;
23058;SDS011;30585;51.502;7.218;2024-02-14T06:06:45;0.93;;;0.80;;
23058;SDS011;30585;51.502;7.218;2024-02-14T06:09:14;1.37;;;0.93;;
23058;SDS011;30585;51.502;7.218;2024-02-14T06:11:43;1.73;;;1.17;;
23058;SDS011;30585;51.502;7.218;2024-02-14T06:14:11;1.77;;;1.17;;
23058;SDS011;30585;51.502;7.218;2024-02-14T06:16:39;0.90;;;0.87;;
23058;SDS011;30585;51.502;7.218;2024-02-14T06:19:07;2.70;;;1.20;;
23058;SDS011;30585;51.502;7.218;2024-02-14T06:21:35;4.83;;;1.20;;
23058;SDS011;30585;51.502;7.218;2024-02-14T06:24:03;1.90;;;1.33;;
23058;SDS011;30585;51.502;7.218;2024-02-14T06:26:33;1.43;;;1.00;;
23058;SDS011;30585;51.502;7.218;2024-02-14T06:29:01;1.67;;;1.27;;
23058;SDS011;30585;51.502;7.218;2024-02-14T06:31:32;0.97;;;0.80;;
23058;SDS011;30585;51.502;7.218;2024-02-14T06:34:00;2.70;;;1.30;;
23058;SDS011;30585;51.502;7.218;2024-02-14T06:36:28;7.07;;;1.20;;
23058;SDS011;30585;51.502;7.218;2024-02-14T06:38:56;5.37;;;1.07;;
23058;SDS011;30585;51.502;7.218;2024-02-14T06:41:23;3.13;;;1.10;;
23058;SDS011;30585;51.502;7.218;2024-02-14T06:43:52;3.63;;;1.13;;
23058;SDS011;30585;51.502;7.218;2024-02-14T06:46:20;3.23;;;1.13;;
23058;SDS011;30585;51.502;7.218;2024-02-14T06:48:48;0.93;;;0.87;;
23058;SDS011;30585;51.502;7.218;2024-02-14T06:51:16;1.70;;;0.80;;
23058;SDS011;30585;51.502;7.218;2024-02-14T06:53:44;1.40;;;1.27;;
23058;SDS011;30585;51.502;7.218;2024-02-14T06:56:11;2.00;;;1.27;;
23058;SDS011;30585;51.502;7.218;2024-02-14T06:58:39;0.77;;;0.77;;
23058;SDS011;30585;51.502;7.218;2024-02-14T07:01:08;0.83;;;0.83;;
23058;SDS011;30585;51.502;7.218;2024-02-14T07:03:38;1.20;;;1.07;;
23058;SDS011;30585;51.502;7.218;2024-02-14T07:06:07;1.53;;;1.20;;
23058;SDS011;30585;51.502;7.218;2024-02-14T07:08:35;1.40;;;1.30;;
23058;SDS011;30585;51.502;7.218;2024-02-14T07:11:02;1.60;;;1.00;;
23058;SDS011;30585;51.502;7.218;2024-02-14T07:13:30;1.73;;;1.13;;
23058;SDS011;30585;51.502;7.218;2024-02-14T07:15:58;3.80;;;1.37;;
23058;SDS011;30585;51.502;7.218;2024-02-14T07:18:27;1.50;;;1.20;;
23058;SDS011;30585;51.502;7.218;2024-02-14T07:20:55;1.67;;;1.30;;
23058;SDS011;30585;51.502;7.218;2024-02-14T07:23:23;1.27;;;1.17;;
23058;SDS011;30585;51.502;7.218;2024-02-14T07:25:50;2.03;;;1.50;;
23058;SDS011;30585;51.502;7.218;2024-02-14T07:28:18;1.20;;;0.87;;
23058;SDS011;30585;51.502;7.218;2024-02-14T07:30:46;0.87;;;0.70;;
23058;SDS011;30585;51.502;7.218;2024-02-14T07:33:14;1.70;;;1.43;;
23058;SDS011;30585;51.502;7.218;2024-02-14T07:35:44;1.83;;;1.20;;
23058;SDS011;30585;51.502;7.218;2024-02-14T07:38:13;4.60;;;1.67;;
23058;SDS011;30585;51.502;7.218;2024-02-14T07:40:42;1.10;;;1.00;;
23058;SDS011;30585;51.502;7.218;2024-02-14T07:43:10;4.60;;;1.03;;
23058;SDS011;30585;51.502;7.218;2024-02-14T07:45:38;1.53;;;1.40;;
23058;SDS011;30585;51.502;7.218;2024-02-14T07:48:06;2.33;;;1.30;;
23058;SDS011;30585;51.502;7.218;2024-02-14T07:50:35;1.43;;;1.30;;
23058;SDS011;30585;51.502;7.218;2024-02-14T07:53:04;2.07;;;1.63;;
23058;SDS011;30585;51.502;7.218;2024-02-14T07:55:33;2.57;;;1.17;;
23058;SDS011;30585;51.502;7.218;2024-02-14T07:58:01;1.23;;;1.00;;
23058;SDS011;30585;51.502;7.218;2024-02-14T08:00:29;2.90;;;1.43;;
23058;SDS011;30585;51.502;7.218;2024-02-14T08:02:56;1.57;;;1.30;;
23058;SDS011;30585;51.502;7.218;2024-02-14T08:05:24;2.73;;;1.47;;
23058;SDS011;30585;51.502;7.218;2024-02-14T08:07:52;1.80;;;1.10;;
23058;SDS011;30585;51.502;7.218;2024-02-14T08:10:21;1.93;;;1.00;;
23058;SDS011;30585;51.502;7.218;2024-02-14T08:12:48;2.23;;;1.30;;
23058;SDS011;30585;51.502;7.218;2024-02-14T08:15:16;2.40;;;1.23;;
23058;SDS011;30585;51.502;7.218;2024-02-14T08:17:44;3.33;;;1.00;;
23058;SDS011;30585;51.502;7.218;2024-02-14T08:20:13;2.20;;;1.20;;
23058;SDS011;30585;51.502;7.218;2024-02-14T08:22:41;1.80;;;1.20;;
23058;SDS011;30585;51.502;7.218;2024-02-14T08:25:09;2.07;;;1.60;;
23058;SDS011;30585;51.502;7.218;2024-02-14T08:27:39;4.03;;;1.80;;
23058;SDS011;30585;51.502;7.218;2024-02-14T08:30:07;4.70;;;1.80;;
23058;SDS011;30585;51.502;7.218;2024-02-14T08:32:35;1.57;;;1.30;;
23058;SDS011;30585;51.502;7.218;2024-02-14T08:35:04;5.37;;;1.60;;
23058;SDS011;30585;51.502;7.218;2024-02-14T08:37:33;6.97;;;1.20;;
23058;SDS011;30585;51.502;7.218;2024-02-14T08:40:03;2.20;;;1.43;;
23058;SDS011;30585;51.502;7.218;2024-02-14T08:42:32;5.93;;;1.43;;
23058;SDS011;30585;51.502;7.218;2024-02-14T08:45:01;2.30;;;1.80;;
23058;SDS011;30585;51.502;7.218;2024-02-14T08:47:29;2.73;;;1.90;;
23058;SDS011;30585;51.502;7.218;2024-02-14T08:49:57;1.87;;;1.50;;
23058;SDS011;30585;51.502;7.218;2024-02-14T08:52:26;4.23;;;1.80;;
23058;SDS011;30585;51.502;7.218;2024-02-14T08:54:54;5.40;;;1.63;;
23058;SDS011;30585;51.502;7.218;2024-02-14T08:57:21;3.07;;;2.17;;
23058;SDS011;30585;51.502;7.218;2024-02-14T08:59:50;2.10;;;1.90;;
23058;SDS011;30585;51.502;7.218;2024-02-14T09:02:19;2.57;;;1.67;;
23058;SDS011;30585;51.502;7.218;2024-02-14T09:04:48;2.20;;;1.60;;
23058;SDS011;30585;51.502;7.218;2024-02-14T09:07:17;2.70;;;1.80;;
23058;SDS011;30585;51.502;7.218;2024-02-14T09:09:45;6.23;;;2.17;;
23058;SDS011;30585;51.502;7.218;2024-02-14T09:12:13;1.83;;;1.30;;
23058;SDS011;30585;51.502;7.218;2024-02-14T09:14:41;4.53;;;1.50;;
23058;SDS011;30585;51.502;7.218;2024-02-14T09:17:08;3.37;;;1.73;;
23058;SDS011;30585;51.502;7.218;2024-02-14T09:19:38;5.00;;;1.70;;
23058;SDS011;30585;51.502;7.218;2024-02-14T09:22:06;3.03;;;1.40;;
23058;SDS011;30585;51.502;7.218;2024-02-14T09:24:34;5.10;;;2.00;;
23058;SDS011;30585;51.502;7.218;2024-02-14T09:27:02;2.90;;;1.80;;
23058;SDS011;30585;51.502;7.218;2024-02-14T09:29:32;6.83;;;1.87;;
23058;SDS011;30585;51.502;7.218;2024-02-14T09:32:00;5.67;;;1.37;;
23058;SDS011;30585;51.502;7.218;2024-02-14T09:34:28;4.70;;;1.37;;
23058;SDS011;30585;51.502;7.218;2024-02-14T09:36:58;2.10;;;1.77;;
23058;SDS011;30585;51.502;7.218;2024-02-14T09:39:26;2.33;;;1.90;;
23058;SDS011;30585;51.502;7.218;2024-02-14T09:41:54;1.57;;;1.10;;
23058;SDS011;30585;51.502;7.218;2024-02-14T09:44:27;0.90;;;0.83;;
23058;SDS011;30585;51.502;7.218;2024-02-14T09:46:56;3.27;;;1.13;;
23058;SDS011;30585;51.502;7.218;2024-02-14T09:49:25;1.80;;;1.20;;
23058;SDS011;30585;51.502;7.218;2024-02-14T09:51:54;2.80;;;2.07;;
23058;SDS011;30585;51.502;7.218;2024-02-14T09:54:24;3.30;;;1.40;;
23058;SDS011;30585;51.502;7.218;2024-02-14T09:56:53;3.43;;;1.70;;
23058;SDS011;30585;51.502;7.218;2024-02-14T09:59:23;2.00;;;1.60;;
23058;SDS011;30585;51.502;7.218;2024-02-14T10:01:51;6.47;;;2.13;;
23058;SDS011;30585;51.502;7.218;2024-02-14T10:04:19;5.10;;;1.53;;
23058;SDS011;30585;51.502;7.218;2024-02-14T10:06:51;1.83;;;1.63;;
23058;SDS011;30585;51.502;7.218;2024-02-14T10:09:20;1.60;;;1.50;;
23058;SDS011;30585;51.502;7.218;2024-02-14T10:11:50;3.27;;;1.77;;
23058;SDS011;30585;51.502;7.218;2024-02-14T10:14:18;3.63;;;1.67;;
23058;SDS011;30585;51.502;7.218;2024-02-14T10:16:46;3.83;;;1.50;;
23058;SDS011;30585;51.502;7.218;2024-02-14T10:19:14;4.03;;;1.87;;
23058;SDS011;30585;51.502;7.218;2024-02-14T10:21:44;4.47;;;1.90;;
23058;SDS011;30585;51.502;7.218;2024-02-14T10:24:23;1.80;;;1.70;;
23058;SDS011;30585;51.502;7.218;2024-02-14T10:26:53;2.17;;;1.23;;
23058;SDS011;30585;51.502;7.218;2024-02-14T10:29:24;2.03;;;1.83;;
23058;SDS011;30585;51.502;7.218;2024-02-14T10:31:52;2.43;;;1.77;;
23058;SDS011;30585;51.502;7.218;2024-02-14T10:34:23;6.03;;;1.73;;
23058;SDS011;30585;51.502;7.218;2024-02-14T10:36:52;1.40;;;1.30;;
23058;SDS011;30585;51.502;7.218;2024-02-14T10:39:24;1.20;;;1.10;;
23058;SDS011;30585;51.502;7.218;2024-02-14T10:41:54;1.80;;;1.33;;
23058;SDS011;30585;51.502;7.218;2024-02-14T10:44:22;2.13;;;1.33;;
23058;SDS011;30585;51.502;7.218;2024-02-14T10:46:50;1.80;;;1.37;;
23058;SDS011;30585;51.502;7.218;2024-02-14T10:49:20;1.40;;;1.00;;
23058;SDS011;30585;51.502;7.218;2024-02-14T10:51:49;1.80;;;1.40;;
23058;SDS011;30585;51.502;7.218;2024-02-14T10:54:21;5.07;;;1.50;;
23058;SDS011;30585;51.502;7.218;2024-02-14T10:56:50;3.47;;;1.60;;
23058;SDS011;30585;51.502;7.218;2024-02-14T10:59:23;1.57;;;1.27;;
23058;SDS011;30585;51.502;7.218;2024-02-14T11:01:52;5.23;;;1.73;;
23058;SDS011;30585;51.502;7.218;2024-02-14T11:04:20;1.40;;;1.13;;
23058;SDS011;30585;51.502;7.218;2024-02-14T11:06:48;5.80;;;1.27;;
23058;SDS011;30585;51.502;7.218;2024-02-14T11:09:20;1.17;;;0.80;;
23058;SDS011;30585;51.502;7.218;2024-02-14T11:11:48;5.63;;;1.60;;
23058;SDS011;30585;51.502;7.218;2024-02-14T11:14:17;3.37;;;1.00;;
23058;SDS011;30585;51.502;7.218;2024-02-14T11:16:47;1.80;;;1.10;;
23058;SDS011;30585;51.502;7.218;2024-02-14T11:19:15;1.83;;;1.00;;
23058;SDS011;30585;51.502;7.218;2024-02-14T11:21:45;6.73;;;2.03;;
23058;SDS011;30585;51.502;7.218;2024-02-14T11:24:15;6.37;;;1.00;;
23058;SDS011;30585;51.502;7.218;2024-02-14T11:26:46;3.07;;;1.70;;
23058;SDS011;30585;51.502;7.218;2024-02-14T11:29:16;2.43;;;1.47;;
23058;SDS011;30585;51.502;7.218;2024-02-14T11:31:56;1.63;;;1.03;;
23058;SDS011;30585;51.502;7.218;2024-02-14T11:34:26;2.30;;;0.97;;
23058;SDS011;30585;51.502;7.218;2024-02-14T11:36:54;0.67;;;0.60;;
23058;SDS011;30585;51.502;7.218;2024-02-14T11:39:22;1.50;;;1.07;;
23058;SDS011;30585;51.502;7.218;2024-02-14T11:41:49;2.80;;;0.87;;
23058;SDS011;30585;51.502;7.218;2024-02-14T11:44:18;2.47;;;1.00;;
23058;SDS011;30585;51.502;7.218;2024-02-14T11:46:48;1.47;;;0.80;;
23058;SDS011;30585;51.502;7.218;2024-02-14T11:49:17;1.37;;;1.10;;
23058;SDS011;30585;51.502;7.218;2024-02-14T11:51:46;4.33;;;0.90;;
23058;SDS011;30585;51.502;7.218;2024-02-14T11:54:14;1.27;;;1.07;;
23058;SDS011;30585;51.502;7.218;2024-02-14T11:56:42;1.73;;;0.90;;
23058;SDS011;30585;51.502;7.218;2024-02-14T11:59:09;4.13;;;1.20;;
23058;SDS011;30585;51.502;7.218;2024-02-14T12:01:38;1.10;;;0.90;;
23058;SDS011;30585;51.502;7.218;2024-02-14T12:04:07;1.73;;;1.03;;
23058;SDS011;30585;51.502;7.218;2024-02-14T12:06:39;1.47;;;1.37;;
23058;SDS011;30585;51.502;7.218;2024-02-14T12:09:08;1.37;;;1.27;;
23058;SDS011;30585;51.502;7.218;2024-02-14T12:11:37;2.50;;;1.17;;
23058;SDS011;30585;51.502;7.218;2024-02-14T12:14:07;2.67;;;1.53;;
23058;SDS011;30585;51.502;7.218;2024-02-14T12:16:36;2.07;;;1.20;;
23058;SDS011;30585;51.502;7.218;2024-02-14T12:19:07;2.40;;;1.60;;
23058;SDS011;30585;51.502;7.218;2024-02-14T12:21:37;3.60;;;2.37;;
23058;SDS011;30585;51.502;7.218;2024-02-14T12:24:07;2.63;;;1.80;;
23058;SDS011;30585;51.502;7.218;2024-02-14T12:26:36;1.60;;;1.40;;
23058;SDS011;30585;51.502;7.218;2024-02-14T12:29:06;2.88;;;1.65;;
23058;SDS011;30585;51.502;7.218;2024-02-14T12:31:34;2.77;;;1.93;;
23058;SDS011;30585;51.502;7.218;2024-02-14T12:34:03;3.53;;;1.90;;
23058;SDS011;30585;51.502;7.218;2024-02-14T12:36:33;3.10;;;1.73;;
23058;SDS011;30585;51.502;7.218;2024-02-14T12:39:02;5.37;;;1.80;;
23058;SDS011;30585;51.502;7.218;2024-02-14T12:41:31;3.25;;;1.75;;
23058;SDS011;30585;51.502;7.218;2024-02-14T12:44:01;2.60;;;2.00;;
23058;SDS011;30585;51.502;7.218;2024-02-14T12:46:29;2.07;;;1.87;;
23058;SDS011;30585;51.502;7.218;2024-02-14T12:48:57;3.58;;;2.03;;
23058;SDS011;30585;51.502;7.218;2024-02-14T12:51:25;3.90;;;1.65;;
23058;SDS011;30585;51.502;7.218;2024-02-14T12:53:55;5.05;;;2.40;;
23058;SDS011;30585;51.502;7.218;2024-02-14T12:56:24;4.68;;;1.88;;
23058;SDS011;30585;51.502;7.218;2024-02-14T12:58:52;2.93;;;1.60;;
23058;SDS011;30585;51.502;7.218;2024-02-14T13:01:20;6.95;;;2.33;;
23058;SDS011;30585;51.502;7.218;2024-02-14T13:03:48;6.47;;;2.63;;
23058;SDS011;30585;51.502;7.218;2024-02-14T13:06:16;3.63;;;2.13;;
23058;SDS011;30585;51.502;7.218;2024-02-14T13:08:44;2.13;;;1.65;;
23058;SDS011;30585;51.502;7.218;2024-02-14T13:11:12;3.83;;;2.93;;
23058;SDS011;30585;51.502;7.218;2024-02-14T13:13:42;3.07;;;2.23;;
23058;SDS011;30585;51.502;7.218;2024-02-14T13:16:10;2.07;;;1.77;;
23058;SDS011;30585;51.502;7.218;2024-02-14T13:18:38;2.03;;;1.40;;
23058;SDS011;30585;51.502;7.218;2024-02-14T13:21:06;5.50;;;1.70;;
23058;SDS011;30585;51.502;7.218;2024-02-14T13:23:34;3.70;;;1.80;;
23058;SDS011;30585;51.502;7.218;2024-02-14T13:26:02;4.57;;;1.57;;
23058;SDS011;30585;51.502;7.218;2024-02-14T13:28:32;1.70;;;1.30;;
23058;SDS011;30585;51.502;7.218;2024-02-14T13:31:02;1.15;;;1.02;;
23058;SDS011;30585;51.502;7.218;2024-02-14T13:33:29;1.55;;;1.33;;
23058;SDS011;30585;51.502;7.218;2024-02-14T13:35:57;1.60;;;1.30;;
23058;SDS011;30585;51.502;7.218;2024-02-14T13:38:25;1.45;;;1.13;;
23058;SDS011;30585;51.502;7.218;2024-02-14T13:40:53;2.10;;;1.20;;
23058;SDS011;30585;51.502;7.218;2024-02-14T13:43:21;1.67;;;1.13;;
23058;SDS011;30585;51.502;7.218;2024-02-14T13:45:48;1.52;;;1.00;;
23058;SDS011;30585;51.502;7.218;2024-02-14T13:48:18;2.45;;;1.15;;
23058;SDS011;30585;51.502;7.218;2024-02-14T13:50:46;2.45;;;1.00;;
23058;SDS011;30585;51.502;7.218;2024-02-14T13:53:15;1.73;;;1.10;;
23058;SDS011;30585;51.502;7.218;2024-02-14T13:55:43;2.40;;;1.00;;
23058;SDS011;30585;51.502;7.218;2024-02-14T13:58:11;1.10;;;0.90;;
23058;SDS011;30585;51.502;7.218;2024-02-14T14:00:43;0.88;;;0.68;;
23058;SDS011;30585;51.502;7.218;2024-02-14T14:03:11;2.23;;;1.23;;
23058;SDS011;30585;51.502;7.218;2024-02-14T14:05:40;1.08;;;0.93;;
23058;SDS011;30585;51.502;7.218;2024-02-14T14:08:08;1.05;;;0.70;;
23058;SDS011;30585;51.502;7.218;2024-02-14T14:10:36;2.33;;;1.13;;
23058;SDS011;30585;51.502;7.218;2024-02-14T14:13:03;1.63;;;1.00;;
23058;SDS011;30585;51.502;7.218;2024-02-14T14:15:31;4.20;;;1.40;;
23058;SDS011;30585;51.502;7.218;2024-02-14T14:17:59;1.50;;;1.35;;
23058;SDS011;30585;51.502;7.218;2024-02-14T14:20:27;2.07;;;1.60;;
23058;SDS011;30585;51.502;7.218;2024-02-14T14:22:57;3.38;;;1.88;;
23058;SDS011;30585;51.502;7.218;2024-02-14T14:25:24;3.90;;;2.17;;
23058;SDS011;30585;51.502;7.218;2024-02-14T14:27:53;2.33;;;1.77;;
23058;SDS011;30585;51.502;7.218;2024-02-14T14:30:21;1.52;;;1.27;;
23058;SDS011;30585;51.502;7.218;2024-02-14T14:32:49;4.38;;;1.77;;
23058;SDS011;30585;51.502;7.218;2024-02-14T14:35:17;2.45;;;1.55;;
23058;SDS011;30585;51.502;7.218;2024-02-14T14:37:46;1.60;;;1.35;;
23058;SDS011;30585;51.502;7.218;2024-02-14T14:40:15;3.15;;;2.53;;
23058;SDS011;30585;51.502;7.218;2024-02-14T14:42:43;2.80;;;1.42;;
23058;SDS011;30585;51.502;7.218;2024-02-14T14:45:11;2.53;;;1.38;;
23058;SDS011;30585;51.502;7.218;2024-02-14T14:47:39;2.25;;;1.30;;
23058;SDS011;30585;51.502;7.218;2024-02-14T14:50:07;1.52;;;1.42;;
23058;SDS011;30585;51.502;7.218;2024-02-14T14:52:35;2.60;;;1.27;;
23058;SDS011;30585;51.502;7.218;2024-02-14T14:55:04;2.50;;;1.38;;